Terminal Aerodrome Forecast
Issued by NWS Chicago, IL

Home | Current Version | Previous Version | Graphics & Text | Print | Product List | Glossary On
Versions: 1 2 3 4 5 6 7 8 9 10 11 12 13 14 15 16 17 18 19 20 21 22 23 24 25 26
695
FTUS43 KLOT 240520
TAFRFD
TAF
KRFD 240520Z 2406/2506 17010KT P6SM OVC022
     FM240700 19008KT P6SM VCSH BKN017 OVC020
      TEMPO 2410/2414 3SM TSRA OVC015CB
     FM241400 20009KT P6SM BKN015
     FM241900 21011G18KT P6SM BKN025
     FM242100 21011G18KT P6SM BKN035
     FM250000 22008KT P6SM VCSH SCT035 BKN120 PROB30 2500/2506 3SM
      TSRA OVC025CB=

USA.gov is the U.S. government's official web portal to all federal, state and local government web resources and services.